Latest Weather Observations for Ballera

IDQ60801

Issued at 10:02 am EST Tuesday 7 December 2021 (issued every 10 minutes, with the page automatically refreshed every 10 minutes)

About weather observations | Map of weather stations | Latest weather observations for QLD | Other Formats
Station Details ID: 045009 Name: BALLERA GAS FIELD Lat: -27.40 Lon: 141.81 Height: 114.5 m
Data from the previous 72 hours. | See also: Recent months at Ballera
Date/Time
EST
Temp
°C
App
Temp
°C
Dew
Point
°C
Rel
Hum
%
Delta-T
°C
Wind Press
QNH
hPa
Press
MSL
hPa
Rain since
9am
mm
Dir  Spd
km/h
Gust
km/h
Spd
kts
Gust
kts
07/10:00am 31.7 28.3 6.0 20 13.8 WNW 13 24 7 13 1010.5 1009.7 0.0
07/09:30am 31.1 28.6 4.8 19 13.8 NW 7 15 4 8 1010.4 1009.6 0.0
07/09:00am 30.4 28.1 5.6 21 13.1 SW 7 11 4 6 1010.6 1009.8 0.0
07/08:30am 29.5 26.4 5.6 22 12.6 SW 11 17 6 9 1010.6 1009.8 0.0
07/08:00am 28.0 24.8 6.7 26 11.3 SW 13 17 7 9 1010.6 1009.8 0.0
07/07:30am 26.3 23.0 6.4 28 10.4 SW 13 17 7 9 1010.5 1009.7 0.0
07/07:00am 24.1 20.5 6.8 33 9.0 W 15 17 8 9 1010.4 1009.6 0.0
07/06:30am 22.6 19.3 6.4 35 8.3 WSW 13 15 7 8 1010.2 1009.4 0.0
07/06:00am 21.2 18.0 6.7 39 7.4 WSW 13 15 7 8 1009.9 1009.1 0.0
07/05:30am 20.4 17.2 6.7 41 7.0 W 13 15 7 8 1009.6 1008.8 0.0
07/05:00am 20.5 17.2 6.5 40 7.1 WNW 13 15 7 8 1009.3 1008.5 0.0
07/04:30am 21.3 17.6 6.4 38 7.6 WNW 15 17 8 9 1009.0 1008.2 0.0
07/04:00am 22.0 18.3 6.3 36 8.0 WNW 15 17 8 9 1008.6 1007.8 0.0
07/03:30am 22.0 18.3 6.3 36 8.0 W 15 17 8 9 1008.5 1007.7 0.0
07/03:00am 22.5 19.2 6.3 35 8.3 W 13 17 7 9 1008.5 1007.7 0.0
07/02:30am 22.9 20.3 6.2 34 8.5 SW 9 13 5 7 1008.5 1007.7 0.0
07/02:00am 23.1 20.1 6.0 33 8.7 SW 11 13 6 7 1008.6 1007.8 0.0
07/01:30am 23.5 19.8 6.3 33 8.8 WSW 15 17 8 9 1008.8 1008.0 0.0
07/01:00am 24.3 20.9 6.1 31 9.4 SW 13 17 7 9 1009.1 1008.3 0.0
07/12:30am 25.2 21.8 5.9 29 10.0 SSW 13 15 7 8 1009.2 1008.4 0.0
07/12:00am 26.0 22.6 6.1 28 10.4 SSW 13 15 7 8 1009.3 1008.5 0.0
 
Date/Time
EST
Temp
°C
App
Temp
°C
Dew
Point
°C
Rel
Hum
%
Delta-T
°C
Wind Press
QNH
hPa
Press
MSL
hPa
Rain since
9am
mm
Dir  Spd
km/h
Gust
km/h
Spd
kts
Gust
kts
06/11:30pm 26.9 22.7 5.8 26 11.0 SSW 17 19 9 10 1009.4 1008.6 0.0
06/11:00pm 27.3 23.1 5.6 25 11.3 SSW 17 19 9 10 1009.4 1008.6 0.0
06/10:30pm 28.1 23.9 5.6 24 11.8 SW 17 20 9 11 1009.4 1008.6 0.0
06/10:00pm 28.6 23.9 6.1 24 11.9 SW 20 24 11 13 1009.0 1008.2 0.0
06/09:30pm 29.2 24.8 6.6 24 12.1 SW 19 20 10 11 1008.9 1008.1 0.0
06/09:00pm 30.0 25.4 6.6 23 12.6 SW 20 26 11 14 1008.7 1007.9 0.0
06/08:30pm 30.6 25.7 7.1 23 12.8 SW 22 32 12 17 1008.3 1007.5 0.0
06/08:00pm 31.5 26.3 7.2 22 13.3 WSW 24 32 13 17 1008.0 1007.2 0.0
06/07:30pm 32.0 26.9 7.6 22 13.5 WSW 24 33 13 18 1007.8 1007.0 0.0
06/07:00pm 32.7 26.4 7.5 21 14.0 WSW 30 39 16 21 1007.6 1006.8 0.0
06/06:30pm 33.5 27.6 7.5 20 14.4 W 28 41 15 22 1007.4 1006.6 0.0
06/06:00pm 33.7 27.1 7.6 20 14.6 W 32 44 17 24 1007.2 1006.4 0.0
06/05:30pm 34.2 27.3 7.3 19 14.9 WSW 33 44 18 24 1007.1 1006.3 0.0
06/05:00pm 34.9 27.9 6.2 17 15.8 W 32 46 17 25 1006.8 1006.0 0.0
06/04:57pm 35.4 29.1 5.8 16 16.1 WSW 28 46 15 25 1006.9 1006.1 0.0
06/04:34pm 35.3 28.1 5.7 16 16.1 W 33 46 18 25 1007.0 1006.2 0.0
06/04:30pm 35.3 28.2 5.7 16 16.1 WNW 32 41 17 22 1006.9 1006.1 0.0
06/04:00pm 35.4 29.1 5.8 16 16.2 WSW 28 41 15 22 1007.0 1006.2 0.0
06/03:30pm 35.7 28.7 6.9 17 16.0 W 33 48 18 26 1007.3 1006.5 0.0
06/03:00pm 35.4 30.3 7.5 18 15.7 W 24 39 13 21 1007.7 1006.9 0.0
06/02:30pm 34.7 29.0 8.4 20 14.9 W 28 46 15 25 1008.0 1007.2 0.0
06/02:29pm 35.1 29.5 8.8 20 15.0 WNW 28 46 15 25 1007.9 1007.1 0.0
06/02:00pm 34.0 29.8 9.9 23 13.9 WSW 22 32 12 17 1008.4 1007.6 0.0
06/01:30pm 33.5 30.2 10.8 25 13.3 W 19 33 10 18 1008.8 1008.0 0.0
06/01:00pm 32.4 29.1 11.0 27 12.5 WSW 19 30 10 16 1009.2 1008.4 0.0
06/12:30pm 31.8 28.5 11.0 28 12.1 W 19 28 10 15 1009.4 1008.6 0.0
06/12:00pm 31.9 29.0 11.1 28 12.1 W 17 24 9 13 1009.9 1009.1 0.0
06/11:30am 30.0 28.6 11.0 31 11.0 WSW 9 19 5 10 1010.1 1009.3 0.0
06/11:00am 28.1 25.9 12.0 36 9.4 WSW 15 24 8 13 1010.6 1009.8 0.0
06/10:30am 28.5 26.4 12.4 37 9.4 W 15 20 8 11 1011.0 1010.2 0.0
06/10:00am 27.1 26.1 12.3 39 8.6 WSW 9 13 5 7 1010.9 1010.1 0.0
06/09:30am 27.2 26.6 13.5 42 8.1 WNW 9 15 5 8 1010.8 1010.0 0.0
06/09:00am 27.1 25.6 14.1 44 7.8 WSW 15 20 8 11 1011.3 1010.5 0.4
06/08:30am 26.1 25.3 13.9 47 7.3 NW 11 20 6 11 1011.1 1010.3 0.2
06/08:00am 26.0 24.6 13.5 46 7.4 N 13 17 7 9 1010.7 1009.9 0.2
06/07:30am 24.5 23.8 13.1 49 6.6 S 9 13 5 7 1010.3 1009.5 0.2
06/07:00am 23.9 22.9 12.2 48 6.7 S 9 11 5 6 1010.0 1009.2 0.2
06/06:30am 23.1 24.0 16.2 65 4.2 S 6 7 3 4 1009.9 1009.1 0.2
06/06:00am 22.2 22.9 17.1 73 3.1 S 9 11 5 6 1009.5 1008.7 0.2
06/05:30am 21.9 22.6 16.2 70 3.5 NE 7 9 4 5 1009.2 1008.4 0.2
06/05:00am 22.0 23.3 18.4 80 2.3 ENE 9 11 5 6 1009.0 1008.2 0.2
06/04:30am 22.2 23.2 18.6 80 2.3 NE 11 13 6 7 1009.0 1008.2 0.2
06/04:00am 22.3 23.7 18.7 80 2.3 WSW 9 11 5 6 1009.5 1008.7 0.2
06/03:30am 22.3 23.4 18.1 77 2.6 WSW 9 11 5 6 1009.8 1009.0 0.2
06/03:00am 22.4 23.5 18.0 76 2.8 WSW 9 11 5 6 1009.8 1009.0 0.2
06/02:30am 22.5 23.7 18.3 77 2.6 WSW 9 13 5 7 1009.9 1009.1 0.2
06/02:00am 23.5 23.5 15.3 60 4.9 SE 9 15 5 8 1009.4 1008.6 0.0
06/01:30am 23.9 22.8 14.3 55 5.7 SSE 13 17 7 9 1008.5 1007.7 0.0
06/01:00am 24.2 23.8 14.0 53 6.0 S 9 13 5 7 1009.3 1008.5 0.0
06/12:30am 24.4 24.1 13.3 50 6.5 S 7 11 4 6 1010.3 1009.5 0.0
06/12:00am 24.7 23.9 11.6 44 7.5 S 7 9 4 5 1011.2 1010.4 0.0
 
Date/Time
EST
Temp
°C
App
Temp
°C
Dew
Point
°C
Rel
Hum
%
Delta-T
°C
Wind Press
QNH
hPa
Press
MSL
hPa
Rain since
9am
mm
Dir  Spd
km/h
Gust
km/h
Spd
kts
Gust
kts
05/11:30pm 24.5 24.0 12.8 48 6.8 S 7 9 4 5 1011.7 1010.8 0.0
05/11:00pm 24.4 24.1 12.7 48 6.8 S 6 9 3 5 1011.7 1010.8 0.0
05/10:30pm 24.4 23.3 13.0 49 6.6 SSW 11 13 6 7 1011.8 1010.9 0.0
05/10:00pm 25.1 21.5 9.8 38 8.5 SW 19 22 10 12 1012.2 1011.3 0.0
05/09:30pm 26.7 23.2 7.2 29 10.4 SSW 15 19 8 10 1012.1 1011.2 0.0
05/09:00pm 27.7 23.0 5.9 25 11.4 SW 20 26 11 14 1012.4 1011.5 0.0
05/08:30pm 28.0 20.8 5.0 23 11.9 SSW 32 37 17 20 1012.1 1011.2 0.0
05/08:00pm 28.6 20.9 3.5 20 12.7 SSW 33 43 18 23 1011.7 1010.8 0.0
05/07:30pm 29.5 22.2 0.2 15 14.1 S 28 33 15 18 1011.8 1010.9 0.0
05/07:00pm 29.7 21.5 0.3 15 14.2 S 33 41 18 22 1011.2 1010.4 0.0
05/06:30pm 30.2 21.2 -0.2 14 14.6 SSW 37 44 20 24 1011.0 1010.2 0.0
05/06:00pm 30.8 21.4 0.2 14 14.8 SSW 39 50 21 27 1010.8 1010.0 0.0
05/05:30pm 31.5 22.8 -0.2 13 15.3 SSW 35 46 19 25 1010.6 1009.8 0.0
05/05:00pm 32.0 23.2 1.2 14 15.3 SSW 37 46 20 25 1010.4 1009.6 0.0
05/04:30pm 32.5 24.1 1.6 14 15.5 SSW 35 44 19 24 1010.2 1009.4 0.0
05/04:00pm 33.2 24.7 1.1 13 16.1 SSW 35 46 19 25 1010.2 1009.4 0.0
05/03:30pm 33.4 25.3 1.3 13 16.1 SSW 33 44 18 24 1010.4 1009.6 0.0
05/03:00pm 34.2 26.1 0.8 12 16.7 SSW 33 48 18 26 1010.6 1009.8 0.0
05/02:30pm 34.4 26.7 -0.3 11 17.1 SSW 30 43 16 23 1010.5 1009.7 0.0
05/02:00pm 34.2 28.2 0.8 12 16.7 S 22 33 12 18 1010.5 1009.7 0.0
05/01:30pm 34.3 28.6 -0.4 11 17.0 S 19 35 10 19 1010.5 1009.7 0.0
05/01:00pm 35.3 30.1 0.4 11 17.5 SSW 17 28 9 15 1010.8 1010.0 0.0
05/12:30pm 33.4 28.0 -1.0 11 16.6 S 17 26 9 14 1011.3 1010.5 0.0
05/12:00pm 33.9 28.6 -0.7 11 16.9 SE 17 28 9 15 1011.8 1010.9 0.0
05/11:30am 32.5 27.6 -0.5 12 16.0 E 15 24 8 13 1011.9 1011.0 0.0
05/11:00am 32.1 27.5 -0.9 12 15.8 E 13 24 7 13 1012.7 1011.8 0.0
05/10:30am 30.6 25.0 0.1 14 14.7 ESE 19 26 10 14 1013.2 1012.3 0.0
05/10:00am 30.5 25.3 0.0 14 14.7 ESE 17 24 9 13 1013.9 1013.0 0.0
05/09:30am 29.3 23.1 0.0 15 14.0 ESE 22 37 12 20 1014.2 1013.4 0.0
05/09:00am 28.0 21.2 0.7 17 13.1 ESE 26 35 14 19 1014.3 1013.5 0.0
05/08:30am 27.3 19.4 0.9 18 12.6 ESE 32 39 17 21 1014.0 1013.2 0.0
05/08:00am 25.9 18.6 -0.2 18 12.1 ESE 28 35 15 19 1013.9 1013.0 0.0
05/07:30am 25.0 17.7 -0.2 19 11.6 ESE 28 35 15 19 1013.9 1013.0 0.0
05/07:00am 24.7 16.6 -0.4 19 11.5 SE 32 41 17 22 1013.3 1012.4 0.0
05/06:30am 24.0 15.3 -0.3 20 11.1 SE 35 39 19 21 1012.6 1011.7 0.0
05/06:00am 23.8 17.2 -0.5 20 11.0 ESE 24 32 13 17 1012.8 1011.9 0.0
05/05:30am 23.8 17.5 -1.2 19 11.2 SE 22 30 12 16 1012.8 1011.9 0.0
05/05:00am 24.1 17.4 -0.9 19 11.3 SE 24 30 13 16 1012.9 1012.0 0.0
05/04:30am 24.4 18.0 -1.4 18 11.6 SE 22 30 12 16 1013.0 1012.1 0.0
05/04:00am 25.2 17.7 -1.6 17 12.1 SE 28 39 15 21 1012.3 1011.4 0.0
05/03:30am 25.7 18.1 -2.0 16 12.4 SE 28 37 15 20 1012.0 1011.1 0.0
05/03:00am 25.8 18.3 -1.1 17 12.3 SE 28 39 15 21 1012.1 1011.2 0.0
05/02:30am 25.7 19.2 0.4 19 11.9 SE 24 28 13 15 1012.2 1011.3 0.0
05/02:00am 26.0 19.7 1.3 20 11.8 SE 24 30 13 16 1012.5 1011.6 0.0
05/01:30am 26.5 19.7 1.0 19 12.1 SE 26 32 14 17 1012.6 1011.7 0.0
05/01:00am 26.9 19.8 1.3 19 12.3 SE 28 32 15 17 1012.8 1011.9 0.0
05/12:30am 27.5 20.7 1.1 18 12.7 SE 26 32 14 17 1013.2 1012.3 0.0
05/12:00am 27.9 20.3 0.6 17 13.0 SE 30 39 16 21 1013.5 1012.6 0.0
 
Date/Time
EST
Temp
°C
App
Temp
°C
Dew
Point
°C
Rel
Hum
%
Delta-T
°C
Wind Press
QNH
hPa
Press
MSL
hPa
Rain since
9am
mm
Dir  Spd
km/h
Gust
km/h
Spd
kts
Gust
kts
04/11:30pm 28.3 19.8 0.9 17 13.2 SSE 35 44 19 24 1013.6 1012.7 0.0
04/11:00pm 28.8 20.0 1.3 17 13.4 SSE 37 46 20 25 1014.0 1013.2 0.0
04/10:30pm 29.5 21.5 1.9 17 13.6 SSE 33 43 18 23 1014.1 1013.3 0.0
04/10:00pm 30.2 22.1 0.7 15 14.3 SSE 33 41 18 22 1013.8 1012.9 0.0
04/09:30pm 30.9 22.5 1.3 15 14.6 SSE 35 50 19 27 1013.5 1012.6 0.0
04/09:00pm 31.9 23.1 1.1 14 15.3 SSE 37 48 20 26 1013.0 1012.1 0.0
04/08:30pm 32.6 24.8 1.7 14 15.5 SSE 32 41 17 22 1012.6 1011.7 0.0
04/08:00pm 33.3 25.2 1.2 13 16.1 SSE 33 43 18 23 1012.3 1011.4 0.0
04/07:30pm 34.1 26.1 0.7 12 16.7 SSE 32 43 17 23 1012.0 1011.1 0.0
04/07:00pm 34.9 26.5 1.3 12 17.0 SSE 35 43 19 23 1011.5 1010.7 0.0
04/06:30pm 35.5 27.3 0.6 11 17.5 SSE 33 43 18 23 1011.2 1010.4 0.0
04/06:00pm 35.8 26.7 -0.5 10 18.0 S 37 44 20 24 1010.8 1010.0 0.0
04/05:30pm 36.3 26.9 -0.2 10 18.2 SSE 39 50 21 27 1010.4 1009.6 0.0
04/05:00pm 37.2 28.1 -0.9 9 18.9 S 37 50 20 27 1009.9 1009.1 0.0
04/04:30pm 38.4 28.8 -1.6 8 19.8 S 39 50 21 27 1009.5 1008.7 0.0
04/04:00pm 39.2 31.0 -1.1 8 20.2 S 32 46 17 25 1009.6 1008.8 0.0
04/03:37pm 39.6 33.6 0.9 9 20.0 SSE 22 44 12 24 1009.7 1008.9 0.0
04/03:30pm 38.6 32.5 0.1 9 19.6 SSE 22 32 12 17 1009.7 1008.9 0.0
04/03:00pm 38.6 32.7 1.6 10 19.3 SSW 22 35 12 19 1010.2 1009.4 0.0
04/02:30pm 39.2 32.6 2.0 10 19.5 SSE 26 33 14 18 1010.6 1009.8 0.0
04/02:00pm 38.7 33.6 3.0 11 19.0 SSE 19 30 10 16 1010.8 1010.0 0.0
04/01:30pm 38.3 32.4 3.9 12 18.5 S 24 33 13 18 1011.3 1010.5 0.0
04/01:00pm 38.0 32.5 5.9 14 17.8 SSE 24 39 13 21 1012.0 1011.1 0.0
04/12:30pm 38.3 33.7 8.1 16 17.3 SE 22 33 12 18 1012.4 1011.5 0.0
04/12:00pm 36.8 31.2 8.6 18 16.2 SSE 28 41 15 22 1013.0 1012.1 0.0
04/11:33am 36.9 31.7 10.2 20 15.7 SE 28 46 15 25 1013.1 1012.2 0.0
04/11:30am 38.1 32.7 9.6 18 16.7 SSE 28 46 15 25 1013.1 1012.2 0.0
04/11:08am 37.2 32.1 10.5 20 15.8 SE 28 46 15 25 1013.3 1012.4 0.0
04/11:00am 37.3 33.0 10.6 20 15.8 SE 24 33 13 18 1013.3 1012.4 0.0
04/10:30am 36.1 32.4 10.3 21 15.1 SE 20 39 11 21 1013.4 1012.5 0.0

Other formats

Comma delimited format used in spreadsheet applications
http://www.bom.gov.au/fwo/IDQ60801/IDQ60801.95487.axf

JavaScript Object Notation format (JSON) in row-major order
http://www.bom.gov.au/fwo/IDQ60801/IDQ60801.95487.json

Data quality

Most of these data are generated automatically and are frequently updated. Quality checks on data are not normally performed. It is possible for incorrect values to appear. Refer to information at About Latest Weather Observations and please check the disclaimer before using these data.